createdAt,value
2018-08-06T00:01:03.960Z,1.70
2018-08-06T00:03:32.273Z,1.60
2018-08-06T00:06:00.617Z,2.00
2018-08-06T00:08:28.920Z,1.50
2018-08-06T00:10:57.269Z,1.50
2018-08-06T00:13:25.593Z,1.73
2018-08-06T00:15:53.654Z,1.70
2018-08-06T00:18:21.993Z,1.40
2018-08-06T00:20:50.329Z,1.73
2018-08-06T00:23:18.695Z,1.50
2018-08-06T00:25:47.021Z,1.70
2018-08-06T00:28:15.327Z,1.80
2018-08-06T00:30:43.651Z,1.53
2018-08-06T00:33:11.936Z,1.43
2018-08-06T00:35:40.324Z,1.70
2018-08-06T00:38:08.626Z,1.73
2018-08-06T00:40:36.947Z,1.70
2018-08-06T00:43:05.475Z,1.77
2018-08-06T00:45:33.878Z,1.60
2018-08-06T00:48:02.121Z,1.83
2018-08-06T00:50:30.743Z,1.53
2018-08-06T00:52:59.063Z,1.50
2018-08-06T00:55:27.403Z,1.90
2018-08-06T00:57:55.740Z,1.90
2018-08-06T01:00:24.066Z,2.30
2018-08-06T01:02:52.395Z,2.70
2018-08-06T01:05:20.771Z,3.10
2018-08-06T01:07:49.140Z,2.70
2018-08-06T01:10:18.861Z,3.87
2018-08-06T01:12:47.266Z,3.17
2018-08-06T01:15:16.701Z,3.93
2018-08-06T01:17:45.171Z,3.50
2018-08-06T01:20:13.995Z,4.20
2018-08-06T01:22:43.189Z,5.20
2018-08-06T01:25:12.027Z,6.17
2018-08-06T01:27:40.428Z,6.13
2018-08-06T01:30:10.687Z,5.63
2018-08-06T01:32:38.995Z,4.77
2018-08-06T01:35:08.666Z,4.17
2018-08-06T01:37:36.976Z,3.60
2018-08-06T01:40:06.896Z,2.67
2018-08-06T01:42:35.236Z,3.20
2018-08-06T01:45:04.172Z,4.00
2018-08-06T01:47:32.530Z,4.77
2018-08-06T01:50:00.848Z,4.70
2018-08-06T01:52:29.191Z,5.03
2018-08-06T01:54:57.504Z,5.50
2018-08-06T01:57:25.836Z,8.17
2018-08-06T01:59:54.160Z,9.43
2018-08-06T02:02:22.507Z,9.13
2018-08-06T02:04:50.828Z,11.43
2018-08-06T02:07:19.158Z,10.70
2018-08-06T02:09:47.839Z,9.27
2018-08-06T02:12:16.831Z,9.60
2018-08-06T02:14:45.190Z,7.80
2018-08-06T02:17:13.554Z,7.37
2018-08-06T02:19:41.869Z,6.40
2018-08-06T02:22:10.202Z,6.07
2018-08-06T02:24:38.540Z,4.67
2018-08-06T02:27:07.142Z,4.40
2018-08-06T02:29:35.523Z,4.13
2018-08-06T02:32:03.883Z,4.57
2018-08-06T02:34:32.242Z,4.33
2018-08-06T02:37:00.563Z,3.70
2018-08-06T02:39:28.915Z,3.10
2018-08-06T02:41:57.297Z,3.20
2018-08-06T02:44:25.603Z,3.20
2018-08-06T02:46:53.941Z,3.27
2018-08-06T02:49:22.285Z,2.63
2018-08-06T02:51:50.852Z,2.60
2018-08-06T02:54:19.148Z,3.13
2018-08-06T02:56:47.460Z,2.07
2018-08-06T02:59:15.783Z,2.37
2018-08-06T03:01:44.151Z,2.40
2018-08-06T03:04:12.461Z,2.27
2018-08-06T03:06:40.825Z,2.20
2018-08-06T03:09:11.438Z,2.03
2018-08-06T03:11:40.122Z,2.00
2018-08-06T03:14:08.711Z,2.00
2018-08-06T03:16:37.072Z,1.90
2018-08-06T03:19:05.431Z,2.20
2018-08-06T03:21:33.814Z,2.23
2018-08-06T03:24:02.138Z,1.97
2018-08-06T03:26:30.468Z,1.90
2018-08-06T03:28:58.779Z,1.97
2018-08-06T03:31:27.162Z,1.80
2018-08-06T03:33:55.654Z,1.70
2018-08-06T03:36:23.700Z,1.80
2018-08-06T03:38:52.002Z,1.60
2018-08-06T03:41:20.368Z,2.07
2018-08-06T03:43:48.674Z,1.60
2018-08-06T03:46:17.016Z,2.00
2018-08-06T03:48:45.318Z,1.80
2018-08-06T03:51:13.628Z,2.10
2018-08-06T03:53:42.015Z,2.27
2018-08-06T03:56:10.372Z,2.37
2018-08-06T03:58:38.743Z,2.70
2018-08-06T04:01:07.211Z,2.90
2018-08-06T04:03:35.550Z,3.43
2018-08-06T04:06:03.919Z,3.00
2018-08-06T04:08:32.232Z,3.00
2018-08-06T04:11:00.516Z,3.87
2018-08-06T04:13:28.880Z,3.50
2018-08-06T04:15:57.154Z,2.63
2018-08-06T04:18:25.704Z,3.00
2018-08-06T04:20:54.051Z,2.30
2018-08-06T04:23:22.404Z,2.43
2018-08-06T04:25:50.728Z,1.80
2018-08-06T04:28:19.036Z,2.60
2018-08-06T04:30:47.336Z,2.50
2018-08-06T04:33:15.687Z,2.63
2018-08-06T04:35:44.003Z,2.00
2018-08-06T04:38:12.331Z,2.17
2018-08-06T04:40:40.671Z,1.60
2018-08-06T04:43:09.054Z,1.97
2018-08-06T04:45:37.354Z,1.53
2018-08-06T04:48:05.752Z,2.10
2018-08-06T04:50:34.054Z,1.80
2018-08-06T04:53:02.434Z,1.40
2018-08-06T04:55:30.725Z,2.00
2018-08-06T04:57:59.159Z,1.80
2018-08-06T05:00:27.474Z,1.57
2018-08-06T05:02:55.794Z,2.00
2018-08-06T05:05:24.080Z,1.63
2018-08-06T05:07:52.736Z,2.00
2018-08-06T05:10:21.101Z,1.63
2018-08-06T05:12:49.452Z,1.40
2018-08-06T05:15:17.802Z,1.83
2018-08-06T05:17:46.107Z,1.60
2018-08-06T05:20:14.428Z,1.30
2018-08-06T05:22:42.767Z,2.00
2018-08-06T05:25:11.091Z,1.53
2018-08-06T05:27:39.463Z,1.50
2018-08-06T05:30:09.622Z,1.37
2018-08-06T05:32:37.956Z,1.60
2018-08-06T05:35:06.511Z,1.80
2018-08-06T05:37:34.873Z,1.70
2018-08-06T05:40:03.297Z,1.60
2018-08-06T05:42:31.624Z,1.23
2018-08-06T05:44:59.942Z,1.47
2018-08-06T05:47:28.284Z,1.83
2018-08-06T05:49:56.599Z,1.40
2018-08-06T05:52:24.932Z,1.30
2018-08-06T05:54:53.958Z,1.50
2018-08-06T05:57:22.686Z,1.40
2018-08-06T05:59:51.074Z,1.90
2018-08-06T06:02:19.454Z,1.70
2018-08-06T06:04:47.800Z,1.50
2018-08-06T06:07:16.373Z,1.63
2018-08-06T06:09:44.718Z,1.33
2018-08-06T06:12:13.240Z,1.40
2018-08-06T06:14:41.544Z,1.30
2018-08-06T06:17:09.872Z,1.60
2018-08-06T06:19:38.218Z,1.47
2018-08-06T06:22:06.593Z,1.57
2018-08-06T06:24:34.968Z,1.60
2018-08-06T06:27:03.297Z,1.50
2018-08-06T06:29:31.659Z,1.87
2018-08-06T06:31:59.974Z,1.60
2018-08-06T06:34:28.537Z,1.60
2018-08-06T06:36:56.840Z,1.90
2018-08-06T06:39:25.136Z,1.40
2018-08-06T06:41:53.483Z,1.53
2018-08-06T06:44:21.926Z,1.70
2018-08-06T06:46:50.293Z,1.60
2018-08-06T06:49:18.694Z,1.60
2018-08-06T06:51:47.044Z,1.73
2018-08-06T06:54:15.381Z,1.80
2018-08-06T06:56:43.680Z,1.40
2018-08-06T06:59:12.031Z,1.60
2018-08-06T07:01:40.347Z,2.13
2018-08-06T07:04:08.676Z,2.10
2018-08-06T07:06:37.007Z,1.50
2018-08-06T07:09:08.276Z,1.60
2018-08-06T07:11:36.748Z,1.70
2018-08-06T07:14:05.320Z,1.70
2018-08-06T07:16:33.805Z,1.83
2018-08-06T07:19:02.119Z,1.60
2018-08-06T07:21:30.446Z,1.60
2018-08-06T07:23:58.744Z,1.40
2018-08-06T07:26:27.036Z,1.73
2018-08-06T07:28:55.374Z,1.70
2018-08-06T07:31:23.695Z,1.67
2018-08-06T07:33:52.140Z,1.73
2018-08-06T07:36:20.482Z,1.83
2018-08-06T07:38:48.797Z,1.30
2018-08-06T07:41:17.127Z,1.90
2018-08-06T07:43:45.434Z,1.80
2018-08-06T07:46:13.798Z,1.97
2018-08-06T07:48:42.145Z,1.80
2018-08-06T07:51:10.468Z,1.50
2018-08-06T07:53:38.823Z,2.27
2018-08-06T07:56:07.312Z,2.30
2018-08-06T07:58:35.375Z,2.20
2018-08-06T08:01:03.775Z,1.90
2018-08-06T08:03:32.091Z,2.27
2018-08-06T08:06:00.467Z,1.90
2018-08-06T08:08:28.783Z,2.20
2018-08-06T08:10:57.112Z,1.77
2018-08-06T08:13:25.495Z,2.30
2018-08-06T08:15:53.844Z,2.10
2018-08-06T08:18:22.195Z,2.10
2018-08-06T08:20:50.527Z,1.90
2018-08-06T08:23:18.870Z,2.00
2018-08-06T08:25:47.339Z,2.27
2018-08-06T08:28:15.745Z,2.07
2018-08-06T08:30:44.132Z,2.57
2018-08-06T08:33:12.452Z,2.40
2018-08-06T08:35:40.815Z,1.97
2018-08-06T08:38:09.192Z,2.40
2018-08-06T08:40:37.540Z,2.20
2018-08-06T08:43:05.923Z,2.20
2018-08-06T08:45:34.390Z,2.30
2018-08-06T08:48:02.710Z,2.60
2018-08-06T08:50:31.096Z,2.30
2018-08-06T08:52:59.440Z,2.20
2018-08-06T08:55:27.894Z,2.13
2018-08-06T08:57:56.208Z,2.17
2018-08-06T09:00:24.558Z,2.57
2018-08-06T09:02:53.380Z,2.23
2018-08-06T09:05:22.011Z,2.50
2018-08-06T09:07:51.188Z,2.27
2018-08-06T09:10:20.055Z,2.40
2018-08-06T09:12:48.688Z,2.03
2018-08-06T09:15:20.748Z,2.17
2018-08-06T09:17:49.057Z,1.93
2018-08-06T09:20:17.399Z,2.33
2018-08-06T09:22:46.212Z,2.60
2018-08-06T09:25:14.995Z,2.27
2018-08-06T09:27:44.706Z,2.20
2018-08-06T09:30:16.044Z,2.10
2018-08-06T09:32:46.740Z,2.40
2018-08-06T09:35:15.976Z,2.43
2018-08-06T09:37:44.359Z,2.17
2018-08-06T09:40:15.103Z,2.53
2018-08-06T09:42:44.136Z,2.40
2018-08-06T09:45:14.623Z,2.83
2018-08-06T09:47:44.230Z,2.00
2018-08-06T09:50:13.379Z,2.40
2018-08-06T09:52:42.576Z,2.53
2018-08-06T09:55:15.268Z,2.60
2018-08-06T09:57:43.848Z,2.83
2018-08-06T10:00:20.558Z,2.40
2018-08-06T10:02:49.911Z,2.30
2018-08-06T10:05:19.054Z,2.40
2018-08-06T10:07:47.572Z,2.30
2018-08-06T10:10:15.955Z,2.40
2018-08-06T10:12:45.265Z,2.33
2018-08-06T10:15:14.742Z,2.37
2018-08-06T10:17:43.895Z,2.30
2018-08-06T10:20:15.587Z,2.37
2018-08-06T10:22:43.611Z,2.63
2018-08-06T10:25:13.059Z,2.00
2018-08-06T10:27:42.270Z,3.10
2018-08-06T10:30:20.925Z,2.57
2018-08-06T10:32:49.198Z,2.43
2018-08-06T10:35:18.236Z,3.10
2018-08-06T10:37:46.729Z,2.60
2018-08-06T10:40:20.433Z,3.10
2018-08-06T10:42:48.748Z,2.50
2018-08-06T10:45:19.277Z,2.47
2018-08-06T10:47:47.938Z,2.43
2018-08-06T10:50:16.339Z,2.20
2018-08-06T10:52:45.163Z,2.60
2018-08-06T10:55:14.004Z,2.30
2018-08-06T10:57:43.484Z,2.73
2018-08-06T11:00:15.819Z,2.43
2018-08-06T11:02:44.520Z,2.73
2018-08-06T11:05:13.958Z,2.87
2018-08-06T11:07:43.361Z,2.53
2018-08-06T11:10:13.450Z,2.33
2018-08-06T11:12:43.107Z,2.60
2018-08-06T11:15:14.944Z,2.17
2018-08-06T11:17:44.664Z,2.40
2018-08-06T11:20:14.252Z,2.30
2018-08-06T11:22:42.806Z,2.90
2018-08-06T11:25:13.103Z,2.33
2018-08-06T11:27:41.613Z,2.67
2018-08-06T11:30:13.317Z,2.40
2018-08-06T11:32:42.588Z,2.43
2018-08-06T11:35:11.844Z,2.07
2018-08-06T11:37:40.402Z,2.40
2018-08-06T11:40:10.824Z,2.20
2018-08-06T11:42:40.009Z,2.80
2018-08-06T11:45:14.041Z,2.00
2018-08-06T11:47:42.355Z,2.10
2018-08-06T11:50:11.464Z,2.30
2018-08-06T11:52:39.800Z,2.33
2018-08-06T11:55:08.736Z,1.90
2018-08-06T11:57:37.052Z,2.33
2018-08-06T12:00:25.223Z,2.30
2018-08-06T12:02:54.072Z,2.30
2018-08-06T12:05:23.436Z,2.13
2018-08-06T12:07:51.802Z,2.10
2018-08-06T12:10:20.304Z,2.13
2018-08-06T12:12:49.429Z,2.13
2018-08-06T12:15:17.874Z,2.10
2018-08-06T12:17:45.928Z,1.90
2018-08-06T12:20:17.775Z,2.30
2018-08-06T12:22:47.244Z,2.07
2018-08-06T12:25:17.221Z,2.17
2018-08-06T12:27:46.210Z,2.00
2018-08-06T12:30:21.458Z,2.07
2018-08-06T12:32:50.580Z,2.37
2018-08-06T12:35:19.234Z,1.87
2018-08-06T12:37:48.036Z,2.23
2018-08-06T12:40:17.550Z,2.20
2018-08-06T12:42:45.890Z,2.20
2018-08-06T12:45:15.062Z,2.10
2018-08-06T12:47:43.804Z,2.37
2018-08-06T12:50:13.318Z,2.07
2018-08-06T12:52:42.367Z,2.23
2018-08-06T12:55:12.165Z,2.30
2018-08-06T12:57:41.212Z,2.60
2018-08-06T13:00:13.802Z,2.00
2018-08-06T13:02:42.150Z,2.50
2018-08-06T13:05:10.781Z,2.47
2018-08-06T13:07:39.097Z,1.83
2018-08-06T13:10:07.708Z,2.00
2018-08-06T13:12:37.478Z,2.20
2018-08-06T13:15:06.884Z,2.03
2018-08-06T13:17:35.259Z,2.20
2018-08-06T13:20:03.531Z,2.67
2018-08-06T13:22:32.019Z,2.13
2018-08-06T13:25:00.489Z,2.03
2018-08-06T13:27:29.171Z,2.03
2018-08-06T13:29:57.468Z,1.80
2018-08-06T13:32:25.814Z,2.00
2018-08-06T13:34:54.118Z,2.30
2018-08-06T13:37:22.473Z,2.17
2018-08-06T13:39:50.753Z,1.77
2018-08-06T13:42:19.120Z,2.10
2018-08-06T13:44:47.478Z,2.13
2018-08-06T13:47:15.844Z,2.43
2018-08-06T13:49:44.136Z,2.33
2018-08-06T13:52:12.506Z,1.93
2018-08-06T13:54:40.899Z,2.17
2018-08-06T13:57:09.255Z,2.10
2018-08-06T13:59:37.643Z,1.70
2018-08-06T14:02:06.098Z,2.00
2018-08-06T14:04:34.464Z,2.27
2018-08-06T14:07:02.808Z,2.50
2018-08-06T14:09:31.163Z,2.20
2018-08-06T14:11:59.502Z,2.07
2018-08-06T14:14:27.845Z,2.10
2018-08-06T14:16:56.226Z,2.40
2018-08-06T14:19:24.484Z,2.13
2018-08-06T14:21:52.915Z,1.70
2018-08-06T14:24:21.280Z,2.00
2018-08-06T14:26:49.664Z,2.20
2018-08-06T14:29:18.117Z,2.07
2018-08-06T14:31:46.560Z,1.93
2018-08-06T14:34:14.729Z,2.07
2018-08-06T14:36:43.047Z,1.97
2018-08-06T14:39:12.762Z,1.90
2018-08-06T14:41:41.309Z,2.50
2018-08-06T14:44:10.097Z,2.00
2018-08-06T14:46:39.053Z,2.40
2018-08-06T14:49:08.084Z,2.20
2018-08-06T14:51:36.592Z,2.40
2018-08-06T14:54:05.180Z,2.53
2018-08-06T14:56:33.499Z,2.40
2018-08-06T14:59:01.861Z,2.47
2018-08-06T15:01:30.178Z,2.37
2018-08-06T15:03:58.511Z,2.50
2018-08-06T15:06:26.839Z,2.47
2018-08-06T15:08:55.156Z,2.20
2018-08-06T15:11:23.438Z,1.70
2018-08-06T15:13:51.802Z,2.10
2018-08-06T15:16:20.142Z,2.20
2018-08-06T15:18:48.492Z,2.40
2018-08-06T15:21:16.925Z,2.13
2018-08-06T15:23:45.260Z,2.43
2018-08-06T15:26:13.552Z,2.40
2018-08-06T15:28:41.924Z,2.20
2018-08-06T15:31:10.232Z,2.30
2018-08-06T15:33:38.601Z,2.33
2018-08-06T15:36:06.905Z,2.80
2018-08-06T15:38:35.585Z,2.33
2018-08-06T15:41:03.891Z,2.30
2018-08-06T15:43:32.271Z,2.10
2018-08-06T15:46:00.600Z,2.53
2018-08-06T15:48:28.972Z,2.20
2018-08-06T15:50:57.285Z,2.60
2018-08-06T15:53:25.623Z,2.67
2018-08-06T15:55:53.925Z,2.37
2018-08-06T15:58:22.355Z,2.30
2018-08-06T16:00:50.695Z,2.17
2018-08-06T16:03:19.099Z,2.60
2018-08-06T16:05:47.434Z,2.37
2018-08-06T16:08:15.767Z,2.40
2018-08-06T16:10:50.435Z,2.40
2018-08-06T16:13:18.776Z,2.10
2018-08-06T16:15:47.068Z,2.20
2018-08-06T16:18:15.510Z,2.70
2018-08-06T16:20:43.748Z,2.20
2018-08-06T16:23:12.077Z,2.53
2018-08-06T16:25:40.409Z,2.27
2018-08-06T16:28:08.452Z,2.50
2018-08-06T16:30:36.792Z,2.23
2018-08-06T16:33:05.135Z,2.23
2018-08-06T16:35:33.444Z,2.90
2018-08-06T16:38:01.788Z,2.23
2018-08-06T16:40:30.212Z,3.90
2018-08-06T16:42:58.526Z,2.70
2018-08-06T16:45:26.896Z,2.33
2018-08-06T16:47:55.237Z,2.60
2018-08-06T16:50:23.593Z,2.40
2018-08-06T16:52:52.044Z,2.20
2018-08-06T16:55:20.313Z,2.00
2018-08-06T16:57:48.624Z,2.70
2018-08-06T17:00:20.451Z,2.40
2018-08-06T17:02:49.341Z,2.30
2018-08-06T17:05:17.705Z,2.33
2018-08-06T17:07:46.997Z,2.60
2018-08-06T17:10:16.851Z,2.67
2018-08-06T17:12:46.447Z,2.37
2018-08-06T17:15:16.947Z,2.60
2018-08-06T17:17:45.756Z,2.30
2018-08-06T17:20:16.242Z,2.40
2018-08-06T17:22:45.939Z,2.50
2018-08-06T17:25:14.597Z,2.30
2018-08-06T17:27:43.132Z,2.40
2018-08-06T17:30:12.520Z,1.97
2018-08-06T17:32:40.851Z,2.40
2018-08-06T17:35:10.728Z,2.20
2018-08-06T17:37:39.052Z,2.20
2018-08-06T17:40:10.484Z,2.70
2018-08-06T17:42:39.311Z,2.03
2018-08-06T17:45:09.801Z,2.20
2018-08-06T17:47:38.252Z,2.70
2018-08-06T17:50:08.371Z,2.20
2018-08-06T17:52:36.658Z,2.27
2018-08-06T17:55:05.081Z,2.10
2018-08-06T17:57:33.431Z,2.27
2018-08-06T18:00:01.887Z,2.37
2018-08-06T18:02:30.305Z,2.50
2018-08-06T18:04:58.664Z,2.17
2018-08-06T18:07:27.104Z,1.90
2018-08-06T18:09:55.488Z,2.33
2018-08-06T18:12:23.911Z,2.00
2018-08-06T18:14:52.384Z,2.07
2018-08-06T18:17:20.804Z,2.50
2018-08-06T18:19:49.180Z,2.43
2018-08-06T18:22:17.547Z,2.73
2018-08-06T18:24:45.894Z,3.43
2018-08-06T18:27:14.373Z,2.30
2018-08-06T18:29:42.722Z,2.27
2018-08-06T18:32:11.276Z,2.50
2018-08-06T18:34:39.666Z,2.47
2018-08-06T18:37:08.028Z,2.50
2018-08-06T18:39:36.428Z,2.40
2018-08-06T18:42:04.849Z,2.47
2018-08-06T18:44:33.189Z,2.43
2018-08-06T18:47:01.601Z,2.57
2018-08-06T18:49:29.966Z,2.03
2018-08-06T18:52:00.158Z,2.30
2018-08-06T18:54:28.652Z,1.90
2018-08-06T18:56:56.723Z,2.70
2018-08-06T18:59:25.016Z,2.60
2018-08-06T19:01:53.486Z,3.00
2018-08-06T19:04:21.991Z,3.23
2018-08-06T19:06:50.431Z,2.50
2018-08-06T19:09:19.474Z,2.43
2018-08-06T19:11:47.920Z,2.63
2018-08-06T19:14:20.105Z,2.53
2018-08-06T19:16:49.970Z,2.70
2018-08-06T19:19:25.870Z,2.70
2018-08-06T19:21:55.079Z,2.63
2018-08-06T19:24:28.684Z,2.47
2018-08-06T19:26:57.040Z,2.47
2018-08-06T19:29:25.579Z,3.00
2018-08-06T19:31:54.422Z,2.63
2018-08-06T19:34:22.767Z,2.97
2018-08-06T19:36:56.373Z,3.13
2018-08-06T19:39:24.950Z,2.77
2018-08-06T19:41:53.673Z,2.43
2018-08-06T19:44:22.020Z,2.20
2018-08-06T19:46:50.457Z,2.47
2018-08-06T19:49:24.178Z,2.47
2018-08-06T19:51:52.640Z,2.30
2018-08-06T19:54:20.976Z,2.30
2018-08-06T19:56:49.375Z,2.40
2018-08-06T19:59:20.037Z,2.50
2018-08-06T20:01:48.403Z,2.20
2018-08-06T20:04:16.790Z,2.00
2018-08-06T20:06:45.178Z,2.07
2018-08-06T20:09:14.938Z,2.30
2018-08-06T20:11:43.379Z,2.40
2018-08-06T20:14:11.907Z,2.30
2018-08-06T20:16:40.240Z,3.10
2018-08-06T20:19:09.560Z,2.30
2018-08-06T20:21:37.912Z,2.60
2018-08-06T20:24:06.371Z,2.10
2018-08-06T20:26:34.724Z,2.70
2018-08-06T20:29:03.236Z,3.17
2018-08-06T20:31:31.560Z,2.50
2018-08-06T20:33:59.880Z,2.63
2018-08-06T20:36:28.231Z,2.40
2018-08-06T20:38:56.542Z,2.50
2018-08-06T20:41:24.880Z,2.60
2018-08-06T20:43:53.960Z,2.23
2018-08-06T20:46:22.372Z,2.87
2018-08-06T20:48:50.692Z,2.37
2018-08-06T20:51:19.084Z,2.87
2018-08-06T20:53:47.414Z,2.80
2018-08-06T20:56:15.744Z,2.60
2018-08-06T20:58:44.069Z,2.40
2018-08-06T21:01:12.466Z,2.43
2018-08-06T21:03:40.802Z,2.67
2018-08-06T21:06:09.175Z,2.83
2018-08-06T21:08:37.516Z,2.57
2018-08-06T21:11:05.855Z,2.57
2018-08-06T21:13:34.204Z,2.60
2018-08-06T21:16:02.249Z,2.43
2018-08-06T21:18:30.811Z,2.30
2018-08-06T21:20:59.162Z,2.60
2018-08-06T21:23:27.575Z,2.80
2018-08-06T21:25:56.014Z,2.40
2018-08-06T21:28:24.375Z,2.50
2018-08-06T21:30:52.748Z,2.50
2018-08-06T21:33:21.136Z,2.47
2018-08-06T21:35:49.464Z,3.03
2018-08-06T21:38:17.847Z,2.70
2018-08-06T21:40:46.238Z,2.60
2018-08-06T21:43:14.585Z,2.70
2018-08-06T21:45:43.012Z,2.40
2018-08-06T21:48:11.304Z,2.07
2018-08-06T21:50:39.703Z,2.90
2018-08-06T21:53:08.326Z,2.63
2018-08-06T21:55:36.642Z,2.43
2018-08-06T21:58:04.980Z,2.80
2018-08-06T22:00:36.979Z,2.47
2018-08-06T22:03:08.418Z,2.60
2018-08-06T22:05:36.753Z,2.47
2018-08-06T22:08:05.126Z,2.33
2018-08-06T22:10:33.577Z,2.50
2018-08-06T22:13:02.018Z,2.90
2018-08-06T22:15:30.404Z,2.43
2018-08-06T22:17:58.752Z,2.27
2018-08-06T22:20:27.055Z,2.70
2018-08-06T22:22:55.816Z,2.27
2018-08-06T22:25:24.303Z,2.40
2018-08-06T22:27:52.698Z,2.50
2018-08-06T22:30:21.014Z,2.40
2018-08-06T22:32:49.350Z,2.03
2018-08-06T22:35:17.689Z,2.20
2018-08-06T22:37:45.748Z,2.40
2018-08-06T22:40:14.363Z,2.30
2018-08-06T22:42:42.732Z,2.00
2018-08-06T22:45:13.622Z,2.33
2018-08-06T22:47:42.928Z,2.60
2018-08-06T22:50:12.592Z,2.00
2018-08-06T22:52:41.138Z,2.47
2018-08-06T22:55:10.791Z,2.10
2018-08-06T22:57:39.308Z,2.40
2018-08-06T23:00:15.326Z,2.20
2018-08-06T23:02:44.109Z,2.50
2018-08-06T23:05:13.918Z,2.03
2018-08-06T23:07:42.422Z,2.60
2018-08-06T23:10:12.480Z,2.10
2018-08-06T23:12:40.907Z,2.40
2018-08-06T23:15:11.733Z,2.20
2018-08-06T23:17:40.103Z,2.20
2018-08-06T23:20:09.067Z,2.20
2018-08-06T23:22:38.564Z,2.30
2018-08-06T23:25:07.748Z,2.00
2018-08-06T23:27:36.736Z,2.40
2018-08-06T23:30:07.547Z,2.17
2018-08-06T23:32:35.867Z,1.97
2018-08-06T23:35:05.107Z,2.50
2018-08-06T23:37:33.415Z,2.40
2018-08-06T23:40:01.737Z,2.50
2018-08-06T23:42:30.037Z,2.47
2018-08-06T23:44:58.396Z,2.47
2018-08-06T23:47:26.736Z,2.47
2018-08-06T23:49:55.106Z,2.50
2018-08-06T23:52:23.416Z,1.87
2018-08-06T23:54:51.754Z,2.23
2018-08-06T23:57:20.060Z,2.57
2018-08-06T23:59:48.384Z,2.50
